HLE79 EGPE-EGPE

Flight info

Callsign HLE79
Flight time 0h 48m
Altitude 2500
Route HEMS
Aircraft EC45/L-V/N

Departure

Time 2026-05-07 19:52
Airport Inverness Airport (EGPE)

Arrival

Time 2026-05-07 20:40
Airport Inverness Airport (EGPE)
Time Latitude Longitude Altitude Speed Heading
2026-05-07 19:47 57.54079 -4.04262 33 ft 0 kts 178°
2026-05-07 19:51 57.54078 -4.04261 39 ft 1 kts 179°
2026-05-07 19:51 57.54073 -4.04256 102 ft 5 kts 180°
2026-05-07 19:51 57.53886 -4.04296 238 ft 44 kts 180°
2026-05-07 19:51 57.53479 -4.04319 420 ft 69 kts 173°
2026-05-07 19:52 57.53113 -4.03684 557 ft 82 kts 109°
2026-05-07 19:52 57.53111 -4.02570 641 ft 91 kts 87°
2026-05-07 19:52 57.53163 -4.01360 711 ft 97 kts 86°
2026-05-07 19:52 57.53232 -4.00075 762 ft 102 kts 84°
2026-05-07 19:53 57.53322 -3.98738 792 ft 106 kts 83°
2026-05-07 19:53 57.53437 -3.97366 809 ft 109 kts 81°
2026-05-07 19:53 57.53577 -3.95987 818 ft 110 kts 79°
2026-05-07 19:53 57.53747 -3.94571 835 ft 111 kts 77°
2026-05-07 19:54 57.53923 -3.93217 904 ft 107 kts 77°
2026-05-07 19:54 57.54094 -3.91890 989 ft 104 kts 78°
2026-05-07 19:54 57.54255 -3.90596 1083 ft 101 kts 78°
2026-05-07 19:54 57.54405 -3.89330 1182 ft 99 kts 79°
2026-05-07 19:55 57.54545 -3.88085 1287 ft 97 kts 80°
2026-05-07 19:55 57.54675 -3.86855 1394 ft 96 kts 81°
2026-05-07 19:55 57.54795 -3.85636 1502 ft 95 kts 81°
2026-05-07 19:55 57.54907 -3.84402 1576 ft 98 kts 82°
2026-05-07 19:56 57.55013 -3.83128 1629 ft 101 kts 83°
2026-05-07 19:56 57.55116 -3.81810 1668 ft 104 kts 83°
2026-05-07 19:56 57.55217 -3.80465 1697 ft 106 kts 83°
2026-05-07 19:56 57.55317 -3.79090 1715 ft 108 kts 83°
2026-05-07 19:57 57.55417 -3.77700 1729 ft 109 kts 84°
2026-05-07 19:57 57.55516 -3.76311 1737 ft 110 kts 84°
2026-05-07 19:57 57.55619 -3.74892 1747 ft 111 kts 85°
2026-05-07 19:57 57.55725 -3.73455 1762 ft 112 kts 85°
2026-05-07 19:58 57.55832 -3.72008 1771 ft 113 kts 85°
2026-05-07 19:58 57.55941 -3.70554 1768 ft 114 kts 85°
2026-05-07 19:58 57.56053 -3.69095 1772 ft 113 kts 85°
2026-05-07 19:58 57.56167 -3.67639 1772 ft 113 kts 85°
2026-05-07 19:59 57.56284 -3.66188 1766 ft 113 kts 85°
2026-05-07 19:59 57.56404 -3.64751 1769 ft 114 kts 84°
2026-05-07 19:59 57.56528 -3.63290 1765 ft 114 kts 84°
2026-05-07 19:59 57.56656 -3.61827 1765 ft 114 kts 84°
2026-05-07 20:00 57.56787 -3.60372 1760 ft 113 kts 84°
2026-05-07 20:00 57.56920 -3.58925 1757 ft 113 kts 83°
2026-05-07 20:00 57.57055 -3.57479 1755 ft 113 kts 83°
2026-05-07 20:00 57.57193 -3.56033 1762 ft 113 kts 83°
2026-05-07 20:01 57.57334 -3.54588 1771 ft 114 kts 83°
2026-05-07 20:01 57.57477 -3.53142 1792 ft 112 kts 83°
2026-05-07 20:01 57.57588 -3.51731 1846 ft 108 kts 86°
2026-05-07 20:01 57.57679 -3.50359 1933 ft 105 kts 87°
2026-05-07 20:02 57.57751 -3.49013 2014 ft 103 kts 89°
2026-05-07 20:02 57.57805 -3.47691 2074 ft 102 kts 90°
2026-05-07 20:02 57.57841 -3.46384 2140 ft 100 kts 91°
2026-05-07 20:02 57.57860 -3.45108 2204 ft 99 kts 94°
2026-05-07 20:03 57.57859 -3.43828 2281 ft 98 kts 95°
2026-05-07 20:03 57.57839 -3.42554 2352 ft 98 kts 97°
2026-05-07 20:03 57.57800 -3.41287 2420 ft 99 kts 99°
2026-05-07 20:03 57.57738 -3.39998 2474 ft 101 kts 101°
2026-05-07 20:04 57.57655 -3.38693 2529 ft 103 kts 102°
2026-05-07 20:04 57.57609 -3.37327 2551 ft 108 kts 96°
2026-05-07 20:04 57.57575 -3.35920 2557 ft 110 kts 97°
2026-05-07 20:04 57.57530 -3.34482 2551 ft 112 kts 98°
2026-05-07 20:05 57.57477 -3.33040 2534 ft 114 kts 99°
2026-05-07 20:05 57.57416 -3.31562 2511 ft 115 kts 99°
2026-05-07 20:05 57.57374 -3.30071 2481 ft 116 kts 94°
2026-05-07 20:05 57.57374 -3.28558 2442 ft 118 kts 93°
2026-05-07 20:06 57.57392 -3.27030 2403 ft 118 kts 92°
2026-05-07 20:06 57.57429 -3.25493 2367 ft 119 kts 90°
2026-05-07 20:06 57.57487 -3.23958 2349 ft 119 kts 89°
2026-05-07 20:06 57.57563 -3.22423 2314 ft 119 kts 86°
2026-05-07 20:07 57.57659 -3.20888 2269 ft 119 kts 85°
2026-05-07 20:07 57.57774 -3.19358 2223 ft 120 kts 84°
2026-05-07 20:07 57.57910 -3.17827 2171 ft 119 kts 83°
2026-05-07 20:07 57.58064 -3.16310 2133 ft 119 kts 82°
2026-05-07 20:08 57.58235 -3.14815 2100 ft 120 kts 81°
2026-05-07 20:08 57.58429 -3.13289 2068 ft 120 kts 79°
2026-05-07 20:08 57.58639 -3.11794 2033 ft 121 kts 78°
2026-05-07 20:08 57.58868 -3.10293 1994 ft 120 kts 77°
2026-05-07 20:09 57.59074 -3.08782 1961 ft 120 kts 81°
2026-05-07 20:09 57.59223 -3.07253 1929 ft 119 kts 82°
2026-05-07 20:09 57.59357 -3.05761 1923 ft 114 kts 83°
2026-05-07 20:10 57.59601 -3.02980 1900 ft 102 kts 85°
2026-05-07 20:10 57.59650 -3.02122 1825 ft 100 kts 88°
2026-05-07 20:10 57.59645 -3.00833 1684 ft 100 kts 97°
2026-05-07 20:10 57.59497 -2.99595 1561 ft 97 kts 117°
2026-05-07 20:11 57.59024 -2.98931 1501 ft 82 kts 182°
2026-05-07 20:11 57.58624 -2.99576 1456 ft 83 kts 254°
2026-05-07 20:11 57.58669 -3.00628 1445 ft 83 kts 290°
2026-05-07 20:11 57.59087 -3.01315 1412 ft 83 kts 344°
2026-05-07 20:12 57.59650 -3.01213 1284 ft 81 kts 27°
2026-05-07 20:12 57.59871 -3.00475 1052 ft 60 kts 121°
2026-05-07 20:12 57.59616 -3.00104 945 ft 38 kts 170°
2026-05-07 20:12 57.59412 -3.00059 874 ft 25 kts 178°
2026-05-07 20:13 57.59243 -3.00058 753 ft 20 kts 180°
2026-05-07 20:13 57.59171 -3.00068 686 ft 5 kts 181°
2026-05-07 20:13 57.59161 -3.00069 677 ft 0 kts 181°
2026-05-07 20:21 57.59160 -3.00072 692 ft 0 kts 180°
2026-05-07 20:22 57.59099 -3.00134 792 ft 28 kts 189°
2026-05-07 20:22 57.58981 -3.00746 930 ft 74 kts 268°
2026-05-07 20:22 57.58986 -3.01744 1223 ft 81 kts 270°
2026-05-07 20:22 57.59065 -3.02811 1462 ft 85 kts 278°
2026-05-07 20:23 57.59203 -3.03969 1601 ft 98 kts 281°
2026-05-07 20:23 57.59368 -3.05269 1682 ft 108 kts 277°
2026-05-07 20:23 57.59441 -3.06713 1712 ft 116 kts 271°
2026-05-07 20:23 57.59497 -3.08251 1701 ft 121 kts 271°
2026-05-07 20:24 57.59546 -3.09846 1681 ft 124 kts 270°
2026-05-07 20:24 57.59583 -3.11466 1667 ft 126 kts 270°
2026-05-07 20:24 57.59608 -3.13104 1645 ft 127 kts 269°
2026-05-07 20:24 57.59618 -3.14753 1617 ft 128 kts 268°
2026-05-07 20:25 57.59614 -3.16408 1587 ft 128 kts 268°
2026-05-07 20:25 57.59630 -3.18046 1558 ft 128 kts 273°
2026-05-07 20:25 57.59881 -3.19646 1528 ft 129 kts 289°
2026-05-07 20:25 57.60202 -3.21206 1528 ft 129 kts 288°
2026-05-07 20:26 57.60490 -3.22785 1525 ft 129 kts 285°
2026-05-07 20:26 57.60741 -3.24385 1524 ft 128 kts 283°
2026-05-07 20:26 57.60963 -3.25998 1527 ft 128 kts 281°
2026-05-07 20:26 57.61164 -3.27626 1525 ft 128 kts 280°
2026-05-07 20:27 57.61349 -3.29256 1528 ft 129 kts 279°
2026-05-07 20:27 57.61522 -3.30893 1523 ft 128 kts 279°
2026-05-07 20:27 57.61688 -3.32525 1528 ft 128 kts 278°
2026-05-07 20:27 57.61847 -3.34158 1524 ft 128 kts 278°
2026-05-07 20:28 57.62003 -3.35796 1525 ft 128 kts 278°
2026-05-07 20:28 57.62155 -3.37439 1527 ft 128 kts 277°
2026-05-07 20:28 57.62305 -3.39078 1527 ft 128 kts 277°
2026-05-07 20:28 57.62454 -3.40721 1528 ft 128 kts 276°
2026-05-07 20:29 57.62600 -3.42361 1527 ft 128 kts 276°
2026-05-07 20:29 57.62744 -3.43978 1528 ft 128 kts 276°
2026-05-07 20:29 57.62889 -3.45620 1528 ft 128 kts 276°
2026-05-07 20:29 57.63031 -3.47252 1525 ft 127 kts 276°
2026-05-07 20:30 57.63173 -3.48878 1528 ft 127 kts 276°
2026-05-07 20:30 57.63316 -3.50509 1528 ft 127 kts 276°
2026-05-07 20:30 57.63458 -3.52140 1528 ft 127 kts 276°
2026-05-07 20:30 57.63598 -3.53766 1528 ft 127 kts 276°
2026-05-07 20:31 57.63738 -3.55394 1525 ft 127 kts 276°
2026-05-07 20:31 57.63877 -3.57023 1530 ft 126 kts 276°
2026-05-07 20:31 57.64018 -3.58641 1527 ft 126 kts 276°
2026-05-07 20:31 57.64158 -3.60258 1527 ft 126 kts 276°
2026-05-07 20:32 57.64296 -3.61869 1530 ft 126 kts 276°
2026-05-07 20:32 57.64434 -3.63477 1530 ft 125 kts 276°
2026-05-07 20:32 57.64569 -3.65064 1530 ft 125 kts 276°
2026-05-07 20:32 57.64707 -3.66669 1530 ft 125 kts 276°
2026-05-07 20:33 57.64845 -3.68276 1529 ft 126 kts 276°
2026-05-07 20:33 57.64983 -3.69888 1529 ft 126 kts 276°
2026-05-07 20:33 57.65119 -3.71499 1530 ft 125 kts 276°
2026-05-07 20:33 57.65255 -3.73105 1530 ft 125 kts 276°
2026-05-07 20:34 57.65392 -3.74709 1530 ft 124 kts 276°
2026-05-07 20:34 57.65528 -3.76306 1530 ft 125 kts 276°
2026-05-07 20:34 57.65663 -3.77902 1530 ft 124 kts 276°
2026-05-07 20:34 57.65795 -3.79477 1523 ft 124 kts 276°
2026-05-07 20:35 57.65931 -3.81080 1530 ft 124 kts 276°
2026-05-07 20:35 57.66065 -3.82673 1530 ft 124 kts 275°
2026-05-07 20:35 57.66200 -3.84270 1527 ft 124 kts 276°
2026-05-07 20:35 57.66332 -3.85863 1527 ft 124 kts 275°
2026-05-07 20:36 57.66466 -3.87465 1530 ft 125 kts 276°
2026-05-07 20:36 57.66599 -3.89051 1530 ft 123 kts 276°
2026-05-07 20:36 57.66732 -3.90633 1527 ft 123 kts 276°
2026-05-07 20:36 57.66865 -3.92215 1529 ft 123 kts 276°
2026-05-07 20:37 57.66997 -3.93803 1546 ft 123 kts 276°
2026-05-07 20:37 57.67122 -3.95386 1563 ft 123 kts 277°
2026-05-07 20:37 57.67364 -3.96921 1566 ft 123 kts 289°
2026-05-07 20:37 57.67720 -3.98335 1530 ft 121 kts 294°
2026-05-07 20:38 57.68080 -3.99710 1474 ft 118 kts 292°
2026-05-07 20:38 57.68462 -4.01058 1342 ft 117 kts 294°
2026-05-07 20:38 57.68865 -4.02395 1088 ft 118 kts 296°
2026-05-07 20:38 57.69002 -4.03698 1070 ft 92 kts 251°
2026-05-07 20:39 57.68587 -4.04483 960 ft 93 kts 202°
2026-05-07 20:39 57.67940 -4.04630 849 ft 92 kts 172°
2026-05-07 20:39 57.67415 -4.03977 774 ft 93 kts 128°
2026-05-07 20:39 57.67299 -4.02907 772 ft 83 kts 78°
2026-05-07 20:40 57.67652 -4.02217 684 ft 71 kts
2026-05-07 20:40 57.68003 -4.02612 517 ft 60 kts 292°
2026-05-07 20:40 57.68056 -4.03237 386 ft 30 kts 249°
2026-05-07 20:40 57.68001 -4.03540 258 ft 24 kts 243°
2026-05-07 20:41 57.67939 -4.03794 121 ft 11 kts 229°
2026-05-07 20:41 57.67908 -4.03877 35 ft 4 kts 229°
2026-05-07 20:41 57.67903 -4.03886 21 ft 0 kts 229°
2026-05-07 20:50 57.67908 -4.03885 52 ft 2 kts 238°
2026-05-07 20:51 57.67900 -4.04168 163 ft 52 kts 255°
2026-05-07 20:51 57.67830 -4.05200 162 ft 101 kts 259°
2026-05-07 20:51 57.67629 -4.06523 242 ft 109 kts 243°
2026-05-07 20:51 57.67167 -4.07675 321 ft 113 kts 223°
2026-05-07 20:52 57.66521 -4.08507 445 ft 111 kts 206°
2026-05-07 20:52 57.65807 -4.08995 623 ft 107 kts 198°
2026-05-07 20:52 57.65105 -4.09413 794 ft 104 kts 197°
2026-05-07 20:52 57.64416 -4.09795 989 ft 102 kts 195°
2026-05-07 20:53 57.63720 -4.10157 1119 ft 105 kts 194°
2026-05-07 20:53 57.63002 -4.10502 1232 ft 109 kts 193°
2026-05-07 20:53 57.62250 -4.10833 1297 ft 113 kts 192°
2026-05-07 20:53 57.61464 -4.11141 1338 ft 117 kts 191°
2026-05-07 20:54 57.60653 -4.11415 1380 ft 119 kts 189°
2026-05-07 20:54 57.59824 -4.11647 1401 ft 122 kts 187°
2026-05-07 20:54 57.58992 -4.11841 1422 ft 123 kts 187°
2026-05-07 20:54 57.58168 -4.12276 1420 ft 124 kts 202°
2026-05-07 20:55 57.57376 -4.12927 1425 ft 124 kts 204°
2026-05-07 20:55 57.56589 -4.13601 1426 ft 125 kts 204°
2026-05-07 20:55 57.55806 -4.14299 1423 ft 125 kts 205°
2026-05-07 20:55 57.55288 -4.14774 1421 ft 125 kts 206°
2026-05-07 20:56 57.54510 -4.15507 1416 ft 125 kts 206°
2026-05-07 20:56 57.53738 -4.16261 1412 ft 125 kts 207°
2026-05-07 20:56 57.52971 -4.17034 1408 ft 125 kts 208°
2026-05-07 20:56 57.52210 -4.17826 1409 ft 125 kts 209°
2026-05-07 20:57 57.51453 -4.18637 1396 ft 125 kts 210°
2026-05-07 20:57 57.50683 -4.19210 1394 ft 114 kts 190°
2026-05-07 20:57 57.49927 -4.19324 1273 ft 105 kts 181°
2026-05-07 20:57 57.49198 -4.19337 1010 ft 107 kts 183°
2026-05-07 20:58 57.48528 -4.19413 692 ft 73 kts 184°
2026-05-07 20:58 57.48141 -4.19458 484 ft 44 kts 186°
2026-05-07 20:58 57.47874 -4.19519 319 ft 34 kts 178°
2026-05-07 20:58 57.47701 -4.19504 168 ft 12 kts 150°
2026-05-07 20:59 57.47656 -4.19458 112 ft 4 kts 152°
2026-05-07 20:59 57.47650 -4.19451 103 ft 0 kts 151°
2026-05-07 21:02 57.47647 -4.19455 111 ft 2 kts 120°
2026-05-07 21:02 57.47673 -4.19265 255 ft 47 kts 57°
2026-05-07 21:02 57.47923 -4.18484 483 ft 89 kts 57°
2026-05-07 21:03 57.48356 -4.17452 593 ft 111 kts 50°
2026-05-07 21:03 57.48913 -4.16323 626 ft 123 kts 47°
2026-05-07 21:03 57.49495 -4.15132 662 ft 128 kts 49°
2026-05-07 21:03 57.50082 -4.13873 693 ft 129 kts 50°
2026-05-07 21:04 57.50652 -4.12589 739 ft 128 kts 52°
2026-05-07 21:04 57.51210 -4.11286 769 ft 129 kts 51°
2026-05-07 21:04 57.51784 -4.10008 771 ft 128 kts 50°
2026-05-07 21:04 57.52366 -4.08751 768 ft 127 kts 50°
2026-05-07 21:05 57.52936 -4.07489 742 ft 126 kts 51°
2026-05-07 21:05 57.53456 -4.06230 610 ft 122 kts 54°
2026-05-07 21:05 57.53930 -4.05022 333 ft 101 kts 54°
2026-05-07 21:05 57.54133 -4.04375 145 ft 24 kts 169°
2026-05-07 21:06 57.54110 -4.04319 51 ft 2 kts 152°
2026-05-07 21:06 57.54092 -4.04285 52 ft 3 kts 139°
2026-05-07 21:06 57.54081 -4.04264 34 ft 0 kts 138°
2026-05-07 21:06 57.54081 -4.04265 33 ft 0 kts 138°